Aviation Digital Data Service (ADDS)

Output produced by METARs form (1145 UTC 15 July 2020)
found at http://www.aviationweather.gov/metar/data/
 
METAR text: SBRJ 151100Z 17009KT 3000 -RADZ BR SCT004 BKN008 OVC012 18/17 Q1022
Conditions at: SBRJ (SANTOS DUMONT/RI, BR) observed 1100 UTC 15 July 2020
Temperature: 18.0°C (64°F)
Dewpoint: 17.0°C (63°F) [RH = 94%]
Pressure (altimeter): 30.18 inches Hg (1022.0 mb)
Winds: from the S (170 degrees) at 10 MPH (9 knots; 4.6 m/s)
Visibility: 1.86 miles (2.99 km)
Ceiling: 800 feet AGL
Clouds: scattered clouds at 400 feet AGL
broken clouds at 800 feet AGL
overcast cloud deck at 1200 feet AGL
Weather: -RA -DZ BR  (light rain, light drizzle, mist)

METAR text: SBRJ 151000Z 14006KT 110V170 4500 -RADZ SCT004 BKN009 OVC015 19/18 Q1022
Conditions at: SBRJ (SANTOS DUMONT/RI, BR) observed 1000 UTC 15 July 2020
Temperature: 19.0°C (66°F)
Dewpoint: 18.0°C (64°F) [RH = 94%]
Pressure (altimeter): 30.18 inches Hg (1022.0 mb)
Winds: from the SE (140 degrees) at 7 MPH (6 knots; 3.1 m/s)
Visibility: 2.80 miles (4.51 km)
Ceiling: 900 feet AGL
Clouds: scattered clouds at 400 feet AGL
broken clouds at 900 feet AGL
overcast cloud deck at 1500 feet AGL
Weather: -RA -DZ  (light rain, light drizzle)

METAR text: SBRJ 150900Z 17005KT 4500 -DZ BR FEW005 BKN010 OVC030 19/18 Q1021
Conditions at: SBRJ (SANTOS DUMONT/RI, BR) observed 0900 UTC 15 July 2020
Temperature: 19.0°C (66°F)
Dewpoint: 18.0°C (64°F) [RH = 94%]
Pressure (altimeter): 30.15 inches Hg (1021.0 mb)
Winds: from the S (170 degrees) at 6 MPH (5 knots; 2.6 m/s)
Visibility: 2.80 miles (4.51 km)
Ceiling: 1000 feet AGL
Clouds: few clouds at 500 feet AGL
broken clouds at 1000 feet AGL
overcast cloud deck at 3000 feet AGL
Weather: -DZ BR  (light drizzle, mist)

METAR text: SBRJ 150850Z 17007KT 4500 -DZ BR FEW005 BKN010 OVC030 19/17 Q1021
Conditions at: SBRJ (SANTOS DUMONT/RI, BR) observed 0850 UTC 15 July 2020
Temperature: 19.0°C (66°F)
Dewpoint: 17.0°C (63°F) [RH = 88%]
Pressure (altimeter): 30.15 inches Hg (1021.0 mb)
Winds: from the S (170 degrees) at 8 MPH (7 knots; 3.6 m/s)
Visibility: 2.80 miles (4.51 km)
Ceiling: 1000 feet AGL
Clouds: few clouds at 500 feet AGL
broken clouds at 1000 feet AGL
overcast cloud deck at 3000 feet AGL
Weather: -DZ BR  (light drizzle, mist)

METAR text: SBRJ 150200Z 17010KT 5000 -DZRA BR SCT007 BKN010 OVC030 20/18 Q1022
Conditions at: SBRJ (SANTOS DUMONT/RI, BR) observed 0200 UTC 15 July 2020
Temperature: 20.0°C (68°F)
Dewpoint: 18.0°C (64°F) [RH = 88%]
Pressure (altimeter): 30.18 inches Hg (1022.0 mb)
Winds: from the S (170 degrees) at 12 MPH (10 knots; 5.1 m/s)
Visibility: 3 miles ( 5 km)
Ceiling: 1000 feet AGL
Clouds: scattered clouds at 700 feet AGL
broken clouds at 1000 feet AGL
overcast cloud deck at 3000 feet AGL
Weather: -DZ -RA BR  (light drizzle, light rain, mist)

METAR text: SBRJ 150100Z 16011KT 4500 -DZRA SCT007 BKN010 OVC030 20/19 Q1021
Conditions at: SBRJ (SANTOS DUMONT/RI, BR) observed 0100 UTC 15 July 2020
Temperature: 20.0°C (68°F)
Dewpoint: 19.0°C (66°F) [RH = 94%]
Pressure (altimeter): 30.15 inches Hg (1021.0 mb)
Winds: from the SSE (160 degrees) at 13 MPH (11 knots; 5.7 m/s)
Visibility: 2.80 miles (4.51 km)
Ceiling: 1000 feet AGL
Clouds: scattered clouds at 700 feet AGL
broken clouds at 1000 feet AGL
overcast cloud deck at 3000 feet AGL
Weather: -DZ -RA  (light drizzle, light rain)

METAR text: SBRJ 150000Z 16010KT 5000 -DZRA BR SCT007 BKN010 OVC030 20/18 Q1021
Conditions at: SBRJ (SANTOS DUMONT/RI, BR) observed 0000 UTC 15 July 2020
Temperature: 20.0°C (68°F)
Dewpoint: 18.0°C (64°F) [RH = 88%]
Pressure (altimeter): 30.15 inches Hg (1021.0 mb)
Winds: from the SSE (160 degrees) at 12 MPH (10 knots; 5.1 m/s)
Visibility: 3 miles ( 5 km)
Ceiling: 1000 feet AGL
Clouds: scattered clouds at 700 feet AGL
broken clouds at 1000 feet AGL
overcast cloud deck at 3000 feet AGL
Weather: -DZ -RA BR  (light drizzle, light rain, mist)

METAR text: SBRJ 142300Z 20005KT 9999 FEW007 BKN010 OVC030 20/19 Q1020
Conditions at: SBRJ (SANTOS DUMONT/RI, BR) observed 2300 UTC 14 July 2020
Temperature: 20.0°C (68°F)
Dewpoint: 19.0°C (66°F) [RH = 94%]
Pressure (altimeter): 30.12 inches Hg (1020.0 mb)
Winds: from the SSW (200 degrees) at 6 MPH (5 knots; 2.6 m/s)
Visibility: 6 or more miles (10+ km)
Ceiling: 1000 feet AGL
Clouds: few clouds at 700 feet AGL
broken clouds at 1000 feet AGL
overcast cloud deck at 3000 feet AGL
Weather: no significant weather observed at this time

METAR text: SBRJ 142200Z 18011KT 5000 -DZ BR SCT007 BKN010 OVC030 20/18 Q1020
Conditions at: SBRJ (SANTOS DUMONT/RI, BR) observed 2200 UTC 14 July 2020
Temperature: 20.0°C (68°F)
Dewpoint: 18.0°C (64°F) [RH = 88%]
Pressure (altimeter): 30.12 inches Hg (1020.0 mb)
Winds: from the S (180 degrees) at 13 MPH (11 knots; 5.7 m/s)
Visibility: 3 miles ( 5 km)
Ceiling: 1000 feet AGL
Clouds: scattered clouds at 700 feet AGL
broken clouds at 1000 feet AGL
overcast cloud deck at 3000 feet AGL
Weather: -DZ BR  (light drizzle, mist)

METAR text: SBRJ 142100Z 17010KT 5000 -RA BR SCT007 BKN010 OVC030 20/19 Q1019
Conditions at: SBRJ (SANTOS DUMONT/RI, BR) observed 2100 UTC 14 July 2020
Temperature: 20.0°C (68°F)
Dewpoint: 19.0°C (66°F) [RH = 94%]
Pressure (altimeter): 30.09 inches Hg (1019.0 mb)
Winds: from the S (170 degrees) at 12 MPH (10 knots; 5.1 m/s)
Visibility: 3 miles ( 5 km)
Ceiling: 1000 feet AGL
Clouds: scattered clouds at 700 feet AGL
broken clouds at 1000 feet AGL
overcast cloud deck at 3000 feet AGL
Weather: -RA BR  (light rain, mist)

METAR text: SBRJ 142000Z 17009KT 9999 SCT007 BKN010 OVC030 21/19 Q1019
Conditions at: SBRJ (SANTOS DUMONT/RI, BR) observed 2000 UTC 14 July 2020
Temperature: 21.0°C (70°F)
Dewpoint: 19.0°C (66°F) [RH = 88%]
Pressure (altimeter): 30.09 inches Hg (1019.0 mb)
Winds: from the S (170 degrees) at 10 MPH (9 knots; 4.6 m/s)
Visibility: 6 or more miles (10+ km)
Ceiling: 1000 feet AGL
Clouds: scattered clouds at 700 feet AGL
broken clouds at 1000 feet AGL
overcast cloud deck at 3000 feet AGL
Weather: no significant weather observed at this time

METAR text: SBRJ 141900Z 17010KT 6000 -RA SCT007 BKN010 OVC020 21/20 Q1018
Conditions at: SBRJ (SANTOS DUMONT/RI, BR) observed 1900 UTC 14 July 2020
Temperature: 21.0°C (70°F)
Dewpoint: 20.0°C (68°F) [RH = 94%]
Pressure (altimeter): 30.06 inches Hg (1018.0 mb)
Winds: from the S (170 degrees) at 12 MPH (10 knots; 5.1 m/s)
Visibility: 4 miles ( 6 km)
Ceiling: 1000 feet AGL
Clouds: scattered clouds at 700 feet AGL
broken clouds at 1000 feet AGL
overcast cloud deck at 2000 feet AGL
Weather: -RA  (light rain)

METAR text: SBRJ 141800Z 16012KT 7000 SCT007 BKN010 OVC020 21/20 Q1018
Conditions at: SBRJ (SANTOS DUMONT/RI, BR) observed 1800 UTC 14 July 2020
Temperature: 21.0°C (70°F)
Dewpoint: 20.0°C (68°F) [RH = 94%]
Pressure (altimeter): 30.06 inches Hg (1018.0 mb)
Winds: from the SSE (160 degrees) at 14 MPH (12 knots; 6.2 m/s)
Visibility: 4 miles ( 7 km)
Ceiling: 1000 feet AGL
Clouds: scattered clouds at 700 feet AGL
broken clouds at 1000 feet AGL
overcast cloud deck at 2000 feet AGL
Weather: no significant weather observed at this time

METAR text: SBRJ 141700Z 16012KT 6000 BKN010 OVC015 21/20 Q1018
Conditions at: SBRJ (SANTOS DUMONT/RI, BR) observed 1700 UTC 14 July 2020
Temperature: 21.0°C (70°F)
Dewpoint: 20.0°C (68°F) [RH = 94%]
Pressure (altimeter): 30.06 inches Hg (1018.0 mb)
Winds: from the SSE (160 degrees) at 14 MPH (12 knots; 6.2 m/s)
Visibility: 4 miles ( 6 km)
Ceiling: 1000 feet AGL
Clouds: broken clouds at 1000 feet AGL
overcast cloud deck at 1500 feet AGL
Weather: no significant weather observed at this time

METAR text: SBRJ 141600Z 16011KT 6000 SCT007 BKN010 OVC025 21/20 Q1018 RERA
Conditions at: SBRJ (SANTOS DUMONT/RI, BR) observed 1600 UTC 14 July 2020
Temperature: 21.0°C (70°F)
Dewpoint: 20.0°C (68°F) [RH = 94%]
Pressure (altimeter): 30.06 inches Hg (1018.0 mb)
Winds: from the SSE (160 degrees) at 13 MPH (11 knots; 5.7 m/s)
Visibility: 4 miles ( 6 km)
Ceiling: 1000 feet AGL
Clouds: scattered clouds at 700 feet AGL
broken clouds at 1000 feet AGL
overcast cloud deck at 2500 feet AGL
Weather: no significant weather observed at this time

METAR text: SBRJ 141550Z 16011KT 6000 FEW007 BKN010 OVC020 21/20 Q1019 RERA
Conditions at: SBRJ (SANTOS DUMONT/RI, BR) observed 1550 UTC 14 July 2020
Temperature: 21.0°C (70°F)
Dewpoint: 20.0°C (68°F) [RH = 94%]
Pressure (altimeter): 30.09 inches Hg (1019.0 mb)
Winds: from the SSE (160 degrees) at 13 MPH (11 knots; 5.7 m/s)
Visibility: 4 miles ( 6 km)
Ceiling: 1000 feet AGL
Clouds: few clouds at 700 feet AGL
broken clouds at 1000 feet AGL
overcast cloud deck at 2000 feet AGL
Weather: no significant weather observed at this time

METAR text: SBRJ 141500Z 18009KT 3500 RA BR BKN010 BKN020 OVC030 21/20 Q1019
Conditions at: SBRJ (SANTOS DUMONT/RI, BR) observed 1500 UTC 14 July 2020
Temperature: 21.0°C (70°F)
Dewpoint: 20.0°C (68°F) [RH = 94%]
Pressure (altimeter): 30.09 inches Hg (1019.0 mb)
Winds: from the S (180 degrees) at 10 MPH (9 knots; 4.6 m/s)
Visibility: 2.17 miles (3.49 km)
Ceiling: 1000 feet AGL
Clouds: broken clouds at 1000 feet AGL
broken clouds at 2000 feet AGL
overcast cloud deck at 3000 feet AGL
Weather: RA BR  (moderate rain, mist)

METAR text: SBRJ 141420Z 18003KT 4500 RA BR SCT012 BKN018 OVC040 22/21 Q1019
Conditions at: SBRJ (SANTOS DUMONT/RI, BR) observed 1420 UTC 14 July 2020
Temperature: 22.0°C (72°F)
Dewpoint: 21.0°C (70°F) [RH = 94%]
Pressure (altimeter): 30.09 inches Hg (1019.0 mb)
Winds: from the S (180 degrees) at 3 MPH (3 knots; 1.5 m/s)
Visibility: 2.80 miles (4.51 km)
Ceiling: 1800 feet AGL
Clouds: scattered clouds at 1200 feet AGL
broken clouds at 1800 feet AGL
overcast cloud deck at 4000 feet AGL
Weather: RA BR  (moderate rain, mist)

METAR text: SBRJ 141400Z 16006KT 8000 -RA FEW010 BKN018 OVC045 23/21 Q1019
Conditions at: SBRJ (SANTOS DUMONT/RI, BR) observed 1400 UTC 14 July 2020
Temperature: 23.0°C (73°F)
Dewpoint: 21.0°C (70°F) [RH = 89%]
Pressure (altimeter): 30.09 inches Hg (1019.0 mb)
Winds: from the SSE (160 degrees) at 7 MPH (6 knots; 3.1 m/s)
Visibility: 5 miles ( 8 km)
Ceiling: 1800 feet AGL
Clouds: few clouds at 1000 feet AGL
broken clouds at 1800 feet AGL
overcast cloud deck at 4500 feet AGL
Weather: -RA  (light rain)

METAR text: SBRJ 141300Z 15005KT 120V180 9999 SCT015 BKN040 24/20 Q1019
Conditions at: SBRJ (SANTOS DUMONT/RI, BR) observed 1300 UTC 14 July 2020
Temperature: 24.0°C (75°F)
Dewpoint: 20.0°C (68°F) [RH = 78%]
Pressure (altimeter): 30.09 inches Hg (1019.0 mb)
Winds: from the SSE (150 degrees) at 6 MPH (5 knots; 2.6 m/s)
Visibility: 6 or more miles (10+ km)
Ceiling: 4000 feet AGL
Clouds: scattered clouds at 1500 feet AGL
broken clouds at 4000 feet AGL
Weather: no significant weather observed at this time

METAR text: SBRJ 141200Z 18007KT 9999 SCT012 BKN030 23/20 Q1019
Conditions at: SBRJ (SANTOS DUMONT/RI, BR) observed 1200 UTC 14 July 2020
Temperature: 23.0°C (73°F)
Dewpoint: 20.0°C (68°F) [RH = 83%]
Pressure (altimeter): 30.09 inches Hg (1019.0 mb)
Winds: from the S (180 degrees) at 8 MPH (7 knots; 3.6 m/s)
Visibility: 6 or more miles (10+ km)
Ceiling: 3000 feet AGL
Clouds: scattered clouds at 1200 feet AGL
broken clouds at 3000 feet AGL
Weather: no significant weather observed at this time

METAR text: SBRJ 141100Z 20009KT 9000 FEW008 SCT013 BKN025 23/20 Q1018
Conditions at: SBRJ (SANTOS DUMONT/RI, BR) observed 1100 UTC 14 July 2020
Temperature: 23.0°C (73°F)
Dewpoint: 20.0°C (68°F) [RH = 83%]
Pressure (altimeter): 30.06 inches Hg (1018.0 mb)
Winds: from the SSW (200 degrees) at 10 MPH (9 knots; 4.6 m/s)
Visibility: 6 miles ( 9 km)
Ceiling: 2500 feet AGL
Clouds: few clouds at 800 feet AGL
scattered clouds at 1300 feet AGL
broken clouds at 2500 feet AGL
Weather: no significant weather observed at this time

METAR text: SBRJ 141025Z 21005KT 180V260 9000 FEW008 SCT015 BKN030 23/20 Q1017
Conditions at: SBRJ (SANTOS DUMONT/RI, BR) observed 1025 UTC 14 July 2020
Temperature: 23.0°C (73°F)
Dewpoint: 20.0°C (68°F) [RH = 83%]
Pressure (altimeter): 30.03 inches Hg (1017.0 mb)
Winds: from the SSW (210 degrees) at 6 MPH (5 knots; 2.6 m/s)
Visibility: 6 miles ( 9 km)
Ceiling: 3000 feet AGL
Clouds: few clouds at 800 feet AGL
scattered clouds at 1500 feet AGL
broken clouds at 3000 feet AGL
Weather: no significant weather observed at this time

METAR text: SBRJ 141000Z 36007KT 320V030 9999 SCT015 22/20 Q1016
Conditions at: SBRJ (SANTOS DUMONT/RI, BR) observed 1000 UTC 14 July 2020
Temperature: 22.0°C (72°F)
Dewpoint: 20.0°C (68°F) [RH = 88%]
Pressure (altimeter): 30.00 inches Hg (1016.0 mb)
Winds: from the N (360 degrees) at 8 MPH (7 knots; 3.6 m/s)
Visibility: 6 or more miles (10+ km)
Ceiling: at least 12,000 feet AGL
Clouds: scattered clouds at 1500 feet AGL
Weather: no significant weather observed at this time

METAR text: SBRJ 140900Z 21007KT 180V250 9999 FEW015 23/20 Q1015
Conditions at: SBRJ (SANTOS DUMONT/RI, BR) observed 0900 UTC 14 July 2020
Temperature: 23.0°C (73°F)
Dewpoint: 20.0°C (68°F) [RH = 83%]
Pressure (altimeter): 29.97 inches Hg (1015.0 mb)
Winds: from the SSW (210 degrees) at 8 MPH (7 knots; 3.6 m/s)
Visibility: 6 or more miles (10+ km)
Ceiling: at least 12,000 feet AGL
Clouds: few clouds at 1500 feet AGL
Weather: no significant weather observed at this time

METAR text: SBRJ 140850Z 20006KT 9999 FEW015 23/20 Q1015
Conditions at: SBRJ (SANTOS DUMONT/RI, BR) observed 0850 UTC 14 July 2020
Temperature: 23.0°C (73°F)
Dewpoint: 20.0°C (68°F) [RH = 83%]
Pressure (altimeter): 29.97 inches Hg (1015.0 mb)
Winds: from the SSW (200 degrees) at 7 MPH (6 knots; 3.1 m/s)
Visibility: 6 or more miles (10+ km)
Ceiling: at least 12,000 feet AGL
Clouds: few clouds at 1500 feet AGL
Weather: no significant weather observed at this time

METAR text: SBRJ 140200Z 14005KT CAVOK 23/21 Q1015
Conditions at: SBRJ (SANTOS DUMONT/RI, BR) observed 0200 UTC 14 July 2020
Temperature: 23.0°C (73°F)
Dewpoint: 21.0°C (70°F) [RH = 89%]
Pressure (altimeter): 29.97 inches Hg (1015.0 mb)
Winds: from the SE (140 degrees) at 6 MPH (5 knots; 2.6 m/s)
Visibility: 6 or more miles (10+ km)
Ceiling: ceiling and visibility are OK
Clouds: unknown
Weather: no significant weather observed at this time

METAR text: SBRJ 140100Z 14005KT CAVOK 24/21 Q1015
Conditions at: SBRJ (SANTOS DUMONT/RI, BR) observed 0100 UTC 14 July 2020
Temperature: 24.0°C (75°F)
Dewpoint: 21.0°C (70°F) [RH = 83%]
Pressure (altimeter): 29.97 inches Hg (1015.0 mb)
Winds: from the SE (140 degrees) at 6 MPH (5 knots; 2.6 m/s)
Visibility: 6 or more miles (10+ km)
Ceiling: ceiling and visibility are OK
Clouds: unknown
Weather: no significant weather observed at this time

METAR text: SBRJ 140000Z 15003KT 110V280 CAVOK 24/19 Q1015
Conditions at: SBRJ (SANTOS DUMONT/RI, BR) observed 0000 UTC 14 July 2020
Temperature: 24.0°C (75°F)
Dewpoint: 19.0°C (66°F) [RH = 74%]
Pressure (altimeter): 29.97 inches Hg (1015.0 mb)
Winds: from the SSE (150 degrees) at 3 MPH (3 knots; 1.5 m/s)
Visibility: 6 or more miles (10+ km)
Ceiling: ceiling and visibility are OK
Clouds: unknown
Weather: no significant weather observed at this time

Forecast for: SBRJ (SANTOS DUMONT/RI, BR)
Text: TAF SBRJ 150300Z 1506/1518 17008KT 8000 BKN009 OVC020 TN18/1508Z TX20/1518Z
Forecast period: 0600 to 1000 UTC 15 July 2020
Forecast type: FROM: standard forecast or significant change
Winds: from the S (170 degrees) at 9 MPH (8 knots; 4.1 m/s)
Visibility: 5 miles (8 km)
Ceiling: 900 feet AGL
Clouds: broken clouds at 900 feet AGL
overcast cloud deck at 2000 feet AGL
Weather: no significant weather forecast for this period
Text: PROB40
Forecast period: 0600 to 1000 UTC 15 July 2020
Forecast type: TEMPORARY: The following changes expected for less than half the time period
Visibility: 1.86 miles (2.99 km)
Ceiling: 500 feet AGL
Clouds: broken clouds at 500 feet AGL
overcast cloud deck at 1100 feet AGL
Weather: RA DZ BR  (moderate rain, moderate drizzle, mist)
Text: TEMPO 1506/1510 3000 RADZ BR BKN005 OVC011
Forecast period: 1000 to 1200 UTC 15 July 2020
Forecast type: BECOMING: Conditions expected to become as follows by 1200 UTC 15 July 2020
Winds: from the S (170 degrees) at 9 MPH (8 knots; 4.1 m/s)
Visibility: 5 miles (8 km)
Ceiling: 2000 feet AGL
Clouds: scattered clouds at 1000 feet AGL
overcast cloud deck at 2000 feet AGL
Weather: no significant weather forecast for this period
Text: BECMG 1510/1512 SCT010 OVC020
Forecast period: 1200 to 1800 UTC 15 July 2020
Forecast type: BECOMING: Conditions expected to become as follows by 1400 UTC 15 July 2020
Winds: from the S (170 degrees) at 9 MPH (8 knots; 4.1 m/s)
Visibility: 6 or more miles 10+ km)
Ceiling: 3000 feet AGL
Clouds: scattered clouds at 2000 feet AGL
broken clouds at 3000 feet AGL
Weather: NSW  (no significant weather)